createdAt,value
2023-05-08T00:01:01.440Z,36.60
2023-05-08T00:03:30.963Z,36.55
2023-05-08T00:06:00.132Z,36.17
2023-05-08T00:08:28.922Z,36.21
2023-05-08T00:10:57.678Z,36.21
2023-05-08T00:13:26.685Z,36.09
2023-05-08T00:15:56.682Z,36.09
2023-05-08T00:18:25.547Z,36.35
2023-05-08T00:20:54.673Z,36.19
2023-05-08T00:23:25.076Z,35.82
2023-05-08T00:25:53.938Z,35.85
2023-05-08T00:28:22.835Z,35.91
2023-05-08T00:30:51.863Z,35.83
2023-05-08T00:33:20.660Z,35.55
2023-05-08T00:35:49.544Z,35.38
2023-05-08T00:38:18.850Z,35.26
2023-05-08T00:40:47.773Z,34.95
2023-05-08T00:43:17.313Z,34.86
2023-05-08T00:45:46.701Z,34.65
2023-05-08T00:48:35.800Z,34.40
2023-05-08T00:51:08.249Z,34.48
2023-05-08T00:53:41.610Z,34.29
2023-05-08T00:56:14.949Z,33.96
2023-05-08T00:58:45.288Z,33.88
2023-05-08T01:01:15.790Z,33.84
2023-05-08T01:03:45.660Z,33.70
2023-05-08T01:06:14.661Z,33.47
2023-05-08T01:08:45.964Z,33.23
2023-05-08T01:11:25.650Z,33.03
2023-05-08T01:14:16.133Z,33.13
2023-05-08T01:16:47.571Z,32.60
2023-05-08T01:19:28.706Z,32.49
2023-05-08T01:22:14.016Z,32.38
2023-05-08T01:25:05.390Z,32.08
2023-05-08T01:27:44.400Z,31.99
2023-05-08T01:30:43.939Z,31.10
2023-05-08T01:33:25.983Z,30.55
2023-05-08T01:36:03.496Z,30.35
2023-05-08T01:38:43.557Z,30.05
2023-05-08T01:41:30.906Z,29.74
2023-05-08T01:44:16.346Z,29.62
2023-05-08T01:46:52.382Z,29.02
2023-05-08T01:49:34.937Z,29.04
2023-05-08T01:52:09.190Z,28.56
2023-05-08T01:54:59.987Z,28.20
2023-05-08T01:57:31.784Z,27.87
2023-05-08T02:00:03.327Z,27.41
2023-05-08T02:02:40.785Z,26.90
2023-05-08T02:05:11.649Z,26.51
2023-05-08T02:07:42.008Z,26.35
2023-05-08T02:10:12.987Z,26.17
2023-05-08T02:12:44.106Z,26.04
2023-05-08T02:15:16.124Z,25.64
2023-05-08T02:17:49.379Z,25.44
2023-05-08T02:20:23.267Z,24.99
2023-05-08T02:22:52.876Z,24.99
2023-05-08T02:25:22.819Z,24.48
2023-05-08T02:27:55.067Z,24.23
2023-05-08T02:30:27.099Z,23.65
2023-05-08T02:33:00.424Z,23.51
2023-05-08T02:35:32.050Z,23.26
2023-05-08T02:38:02.757Z,22.85
2023-05-08T02:40:34.599Z,22.82
2023-05-08T02:43:03.490Z,22.60
2023-05-08T02:45:44.303Z,22.48
2023-05-08T02:48:21.414Z,21.71
2023-05-08T02:51:13.472Z,21.90
2023-05-08T02:53:52.388Z,21.30
2023-05-08T02:56:57.021Z,21.26
2023-05-08T02:59:54.255Z,20.65
2023-05-08T03:02:34.679Z,20.49
2023-05-08T03:05:31.193Z,20.49
2023-05-08T03:08:16.750Z,20.22
2023-05-08T03:10:50.659Z,20.25
2023-05-08T03:13:21.722Z,19.94
2023-05-08T03:15:58.173Z,19.24
2023-05-08T03:18:31.963Z,19.81
2023-05-08T03:21:01.304Z,19.11
2023-05-08T03:23:34.710Z,18.68
2023-05-08T03:26:06.591Z,18.60
2023-05-08T03:28:40.142Z,18.42
2023-05-08T03:31:10.684Z,17.89
2023-05-08T03:33:43.069Z,17.89
2023-05-08T03:36:14.424Z,17.88
2023-05-08T03:38:44.749Z,17.57
2023-05-08T03:41:14.083Z,17.00
2023-05-08T03:43:43.132Z,17.05
2023-05-08T03:46:13.095Z,16.73
2023-05-08T03:48:44.156Z,16.80
2023-05-08T03:51:14.431Z,16.85
2023-05-08T03:53:43.763Z,16.44
2023-05-08T03:56:12.647Z,15.93
2023-05-08T03:58:53.383Z,15.72
2023-05-08T04:01:26.736Z,15.64
2023-05-08T04:04:18.973Z,15.59
2023-05-08T04:07:03.239Z,15.58
2023-05-08T04:10:00.889Z,15.46
2023-05-08T04:12:41.786Z,14.85
2023-05-08T04:15:17.086Z,14.97
2023-05-08T04:17:53.877Z,14.95
2023-05-08T04:20:27.632Z,15.26
2023-05-08T04:22:59.383Z,14.75
2023-05-08T04:25:30.353Z,14.50
2023-05-08T04:28:00.413Z,14.73
2023-05-08T04:30:30.755Z,14.41
2023-05-08T04:33:03.394Z,14.56
2023-05-08T04:35:34.842Z,14.20
2023-05-08T04:38:06.854Z,13.95
2023-05-08T04:40:36.367Z,14.11
2023-05-08T04:43:05.481Z,14.01
2023-05-08T04:45:34.672Z,14.09
2023-05-08T04:48:03.675Z,14.04
2023-05-08T04:50:33.084Z,13.19
2023-05-08T04:53:01.923Z,13.47
2023-05-08T04:55:31.614Z,13.58
2023-05-08T04:58:00.704Z,13.48
2023-05-08T05:00:30.523Z,13.44
2023-05-08T05:02:59.896Z,13.39
2023-05-08T05:05:29.183Z,13.75
2023-05-08T05:07:58.034Z,13.64
2023-05-08T05:10:27.609Z,13.28
2023-05-08T05:12:56.754Z,13.43
2023-05-08T05:15:25.599Z,13.27
2023-05-08T05:17:54.611Z,13.21
2023-05-08T05:20:23.584Z,13.08
2023-05-08T05:22:52.838Z,13.04
2023-05-08T05:25:22.026Z,13.13
2023-05-08T05:27:51.073Z,13.16
2023-05-08T05:30:20.107Z,13.16
2023-05-08T05:32:49.585Z,13.36
2023-05-08T05:35:18.965Z,13.38
2023-05-08T05:37:48.301Z,13.62
2023-05-08T05:40:17.926Z,13.54
2023-05-08T05:42:50.773Z,12.71
2023-05-08T05:45:20.569Z,13.01
2023-05-08T05:47:51.049Z,12.92
2023-05-08T05:50:23.072Z,13.01
2023-05-08T05:52:53.687Z,13.55
2023-05-08T05:55:23.764Z,13.29
2023-05-08T05:57:52.993Z,13.09
2023-05-08T06:00:22.864Z,13.48
2023-05-08T06:02:56.788Z,13.37
2023-05-08T06:05:26.159Z,13.16
2023-05-08T06:07:55.943Z,13.47
2023-05-08T06:10:26.121Z,12.97
2023-05-08T06:12:55.284Z,13.05
2023-05-08T06:15:25.305Z,13.29
2023-05-08T06:17:55.135Z,13.16
2023-05-08T06:20:26.354Z,13.14
2023-05-08T06:22:55.664Z,13.39
2023-05-08T06:25:25.789Z,12.79
2023-05-08T06:27:55.038Z,12.96
2023-05-08T06:30:24.101Z,12.84
2023-05-08T06:32:53.485Z,13.14
2023-05-08T06:35:22.397Z,13.40
2023-05-08T06:37:52.117Z,13.77
2023-05-08T06:40:21.014Z,13.85
2023-05-08T06:42:50.013Z,13.83
2023-05-08T06:45:19.385Z,14.18
2023-05-08T06:47:48.744Z,14.02
2023-05-08T06:50:17.766Z,13.91
2023-05-08T06:52:46.662Z,13.98
2023-05-08T06:55:15.634Z,13.29
2023-05-08T06:57:44.701Z,13.65
2023-05-08T07:00:14.768Z,13.83
2023-05-08T07:02:44.372Z,13.77
2023-05-08T07:05:13.580Z,13.90
2023-05-08T07:07:43.297Z,13.96
2023-05-08T07:10:12.983Z,14.05
2023-05-08T07:12:41.914Z,14.21
2023-05-08T07:15:24.696Z,14.25
2023-05-08T07:17:55.168Z,14.23
2023-05-08T07:20:25.006Z,14.04
2023-05-08T07:22:55.125Z,14.14
2023-05-08T07:25:24.626Z,14.10
2023-05-08T07:27:53.470Z,14.18
2023-05-08T07:30:23.063Z,14.24
2023-05-08T07:32:51.981Z,14.26
2023-05-08T07:35:21.750Z,14.06
2023-05-08T07:37:50.837Z,14.08
2023-05-08T07:40:19.742Z,14.19
2023-05-08T07:42:48.879Z,14.41
2023-05-08T07:45:17.834Z,14.27
2023-05-08T07:47:56.788Z,14.03
2023-05-08T07:50:27.152Z,14.14
2023-05-08T07:52:56.224Z,14.07
2023-05-08T07:55:25.093Z,14.08
2023-05-08T07:57:53.915Z,14.32
2023-05-08T08:00:23.838Z,14.70
2023-05-08T08:02:53.425Z,15.44
2023-05-08T08:05:22.571Z,15.99
2023-05-08T08:07:51.375Z,16.52
2023-05-08T08:10:20.317Z,16.91
2023-05-08T08:12:49.534Z,17.11
2023-05-08T08:15:18.502Z,17.37
2023-05-08T08:17:47.875Z,17.71
2023-05-08T08:20:17.985Z,17.83
2023-05-08T08:22:46.829Z,18.22
2023-05-08T08:25:16.661Z,18.20
2023-05-08T08:27:45.545Z,18.20
2023-05-08T08:30:17.985Z,18.14
2023-05-08T08:32:47.610Z,18.18
2023-05-08T08:35:17.373Z,18.36
2023-05-08T08:37:46.548Z,18.46
2023-05-08T08:40:15.441Z,18.53
2023-05-08T08:42:44.361Z,18.58
2023-05-08T08:45:13.406Z,18.55
2023-05-08T08:47:46.297Z,18.85
2023-05-08T08:50:16.928Z,19.02
2023-05-08T08:53:22.327Z,19.05
2023-05-08T08:55:54.344Z,19.03
2023-05-08T08:59:00.848Z,19.40
2023-05-08T09:01:33.270Z,19.54
2023-05-08T09:04:04.063Z,19.62
2023-05-08T09:06:37.605Z,19.79
2023-05-08T09:09:06.646Z,19.71
2023-05-08T09:11:38.274Z,20.01
2023-05-08T09:14:07.335Z,20.06
2023-05-08T09:16:36.355Z,20.15
2023-05-08T09:19:05.337Z,20.17
2023-05-08T09:21:35.147Z,20.22
2023-05-08T09:24:05.719Z,20.39
2023-05-08T09:26:41.938Z,20.68
2023-05-08T09:29:17.179Z,20.52
2023-05-08T09:31:48.075Z,21.14
2023-05-08T09:34:52.816Z,20.95
2023-05-08T09:37:22.063Z,21.02
2023-05-08T09:39:50.992Z,21.24
2023-05-08T09:42:20.051Z,21.04
2023-05-08T09:44:54.797Z,21.19
2023-05-08T09:47:26.572Z,21.27
2023-05-08T09:50:09.994Z,21.06
2023-05-08T09:52:40.136Z,21.06
2023-05-08T09:55:11.838Z,21.11
2023-05-08T09:57:54.757Z,21.26
2023-05-08T10:00:26.681Z,20.99
2023-05-08T10:03:01.140Z,21.22
2023-05-08T10:05:32.212Z,21.35
2023-05-08T10:08:23.477Z,21.46
2023-05-08T10:10:52.633Z,21.33
2023-05-08T10:13:21.973Z,21.33
2023-05-08T10:15:55.618Z,21.39
2023-05-08T10:18:30.685Z,21.56
2023-05-08T10:21:03.709Z,21.54
2023-05-08T10:23:36.279Z,21.69
2023-05-08T10:26:13.128Z,21.79
2023-05-08T10:28:56.402Z,21.60
2023-05-08T10:31:29.814Z,21.86
2023-05-08T10:34:02.441Z,21.86
2023-05-08T10:36:33.041Z,21.89
2023-05-08T10:39:03.060Z,21.98
2023-05-08T10:41:32.451Z,22.17
2023-05-08T10:44:03.357Z,22.28
2023-05-08T10:46:40.426Z,22.30
2023-05-08T10:49:11.841Z,22.16
2023-05-08T10:51:56.753Z,22.30
2023-05-08T10:54:53.886Z,22.46
2023-05-08T10:57:24.146Z,22.56
2023-05-08T10:59:52.942Z,22.56
2023-05-08T11:02:31.048Z,22.59
2023-05-08T11:05:21.559Z,22.55
2023-05-08T11:08:01.852Z,22.72
2023-05-08T11:10:37.672Z,22.75
2023-05-08T11:13:08.025Z,22.87
2023-05-08T11:15:38.486Z,22.91
2023-05-08T11:18:10.199Z,22.90
2023-05-08T11:20:44.142Z,23.10
2023-05-08T11:23:29.850Z,23.10
2023-05-08T11:26:06.816Z,23.12
2023-05-08T11:28:59.967Z,23.17
2023-05-08T11:31:51.283Z,23.28
2023-05-08T11:34:44.892Z,23.35
2023-05-08T11:37:26.211Z,23.36
2023-05-08T11:39:55.039Z,23.47
2023-05-08T11:42:30.089Z,23.55
2023-05-08T11:45:10.526Z,23.58
2023-05-08T11:47:42.574Z,23.81
2023-05-08T11:50:15.335Z,23.89
2023-05-08T11:52:44.398Z,23.92
2023-05-08T11:55:16.446Z,24.11
2023-05-08T11:57:45.218Z,24.19
2023-05-08T12:00:15.895Z,24.30
2023-05-08T12:02:48.155Z,24.30
2023-05-08T12:05:28.193Z,24.43
2023-05-08T12:07:57.080Z,24.51
2023-05-08T12:10:26.589Z,24.63
2023-05-08T12:12:55.431Z,24.64
2023-05-08T12:15:24.900Z,24.56
2023-05-08T12:18:03.440Z,24.72
2023-05-08T12:20:33.942Z,24.86
2023-05-08T12:23:04.272Z,24.89
2023-05-08T12:25:33.199Z,24.91
2023-05-08T12:28:02.141Z,25.04
2023-05-08T12:30:31.179Z,25.06
2023-05-08T12:33:01.547Z,25.09
2023-05-08T12:35:30.732Z,25.21
2023-05-08T12:38:04.181Z,25.40
2023-05-08T12:40:36.839Z,25.28
2023-05-08T12:43:05.671Z,25.54
2023-05-08T12:45:37.841Z,25.60
2023-05-08T12:48:09.028Z,25.87
2023-05-08T12:50:41.152Z,26.11
2023-05-08T12:53:11.704Z,25.99
2023-05-08T12:55:53.288Z,26.21
2023-05-08T12:58:26.958Z,26.17
2023-05-08T13:01:06.567Z,26.07
2023-05-08T13:03:35.818Z,26.07
2023-05-08T13:06:05.273Z,26.12
2023-05-08T13:08:38.656Z,26.30
2023-05-08T13:11:08.447Z,26.78
2023-05-08T13:13:39.323Z,26.82
2023-05-08T13:16:10.196Z,26.88
2023-05-08T13:18:40.414Z,27.06
2023-05-08T13:21:09.152Z,27.03
2023-05-08T13:23:38.308Z,26.85
2023-05-08T13:26:08.180Z,27.15
2023-05-08T13:28:38.174Z,27.25
2023-05-08T13:31:07.169Z,27.42
2023-05-08T13:33:36.231Z,27.52
2023-05-08T13:36:06.006Z,27.72
2023-05-08T13:38:35.871Z,27.70
2023-05-08T13:41:04.935Z,27.88
2023-05-08T13:43:36.229Z,28.01
2023-05-08T13:46:06.860Z,28.41
2023-05-08T13:48:36.429Z,28.10
2023-05-08T13:51:05.539Z,28.51
2023-05-08T13:53:34.676Z,28.60
2023-05-08T13:56:04.007Z,28.75
2023-05-08T13:58:32.982Z,28.51
2023-05-08T14:01:17.593Z,28.33
2023-05-08T14:03:54.511Z,28.88
2023-05-08T14:06:23.845Z,28.75
2023-05-08T14:08:55.527Z,29.01
2023-05-08T14:11:26.212Z,29.34
2023-05-08T14:13:55.072Z,29.32
2023-05-08T14:16:24.024Z,29.28
2023-05-08T14:18:52.920Z,29.28
2023-05-08T14:21:21.871Z,28.89
2023-05-08T14:23:50.943Z,28.87
2023-05-08T14:26:20.097Z,29.07
2023-05-08T14:28:49.046Z,28.83
2023-05-08T14:31:17.949Z,28.86
2023-05-08T14:33:47.124Z,28.85
2023-05-08T14:36:16.083Z,29.10
2023-05-08T14:38:44.937Z,29.04
2023-05-08T14:41:14.107Z,29.06
2023-05-08T14:43:44.459Z,28.87
2023-05-08T14:46:13.366Z,28.82
2023-05-08T14:48:45.041Z,28.97
2023-05-08T14:51:14.868Z,28.76
2023-05-08T14:53:44.758Z,29.16
2023-05-08T14:56:14.553Z,29.00
2023-05-08T14:58:44.110Z,29.09
2023-05-08T15:01:15.871Z,29.09
2023-05-08T15:03:48.117Z,29.13
2023-05-08T15:06:18.151Z,28.79
2023-05-08T15:08:47.691Z,29.27
2023-05-08T15:11:16.845Z,28.98
2023-05-08T15:13:47.200Z,28.96
2023-05-08T15:16:16.181Z,29.27
2023-05-08T15:18:46.074Z,29.20
2023-05-08T15:21:15.052Z,29.07
2023-05-08T15:23:44.149Z,29.41
2023-05-08T15:26:13.218Z,29.33
2023-05-08T15:28:42.152Z,29.32
2023-05-08T15:31:11.146Z,29.46
2023-05-08T15:33:45.306Z,29.26
2023-05-08T15:36:15.207Z,29.45
2023-05-08T15:38:44.415Z,29.57
2023-05-08T15:41:15.497Z,29.52
2023-05-08T15:43:46.439Z,29.62
2023-05-08T15:46:15.317Z,29.38
2023-05-08T15:48:44.715Z,29.75
2023-05-08T15:51:14.692Z,29.69
2023-05-08T15:53:43.675Z,29.61
2023-05-08T15:56:12.521Z,29.73
2023-05-08T15:58:41.718Z,29.70
2023-05-08T16:01:11.444Z,29.73
2023-05-08T16:03:40.565Z,29.78
2023-05-08T16:06:09.951Z,30.00
2023-05-08T16:08:38.829Z,29.81
2023-05-08T16:11:07.717Z,29.91
2023-05-08T16:13:36.901Z,30.14
2023-05-08T16:16:06.999Z,30.10
2023-05-08T16:18:36.168Z,30.19
2023-05-08T16:21:11.311Z,30.43
2023-05-08T16:23:41.012Z,30.48
2023-05-08T16:26:10.902Z,30.38
2023-05-08T16:28:41.259Z,30.30
2023-05-08T16:31:10.627Z,30.40
2023-05-08T16:33:39.446Z,30.62
2023-05-08T16:36:09.034Z,30.47
2023-05-08T16:38:38.249Z,30.92
2023-05-08T16:41:10.925Z,30.83
2023-05-08T16:43:41.986Z,30.57
2023-05-08T16:46:12.664Z,30.85
2023-05-08T16:48:43.316Z,30.76
2023-05-08T16:51:12.253Z,31.03
2023-05-08T16:53:41.302Z,31.22
2023-05-08T16:56:11.257Z,31.20
2023-05-08T16:58:40.899Z,31.27
2023-05-08T17:01:12.232Z,31.41
2023-05-08T17:03:41.588Z,31.43
2023-05-08T17:06:11.983Z,31.75
2023-05-08T17:08:41.268Z,31.52
2023-05-08T17:11:11.246Z,31.80
2023-05-08T17:13:40.331Z,31.72
2023-05-08T17:16:09.942Z,31.79
2023-05-08T17:18:38.887Z,32.01
2023-05-08T17:21:08.109Z,31.92
2023-05-08T17:23:38.095Z,31.96
2023-05-08T17:26:07.432Z,32.01
2023-05-08T17:28:37.756Z,31.93
2023-05-08T17:31:06.672Z,32.08
2023-05-08T17:33:35.620Z,31.82
2023-05-08T17:36:05.158Z,32.23
2023-05-08T17:38:36.911Z,31.95
2023-05-08T17:41:05.776Z,32.17
2023-05-08T17:43:36.210Z,32.16
2023-05-08T17:46:07.002Z,32.09
2023-05-08T17:48:36.831Z,32.34
2023-05-08T17:51:06.678Z,32.42
2023-05-08T17:53:37.006Z,32.52
2023-05-08T17:56:06.450Z,32.29
2023-05-08T17:58:35.793Z,32.39
2023-05-08T18:01:08.438Z,32.29
2023-05-08T18:03:38.339Z,32.37
2023-05-08T18:06:07.623Z,32.47
2023-05-08T18:08:36.901Z,32.70
2023-05-08T18:11:07.586Z,32.46
2023-05-08T18:13:37.059Z,32.95
2023-05-08T18:16:07.319Z,32.85
2023-05-08T18:18:36.909Z,32.80
2023-05-08T18:21:06.445Z,32.88
2023-05-08T18:23:35.553Z,32.98
2023-05-08T18:26:04.656Z,33.00
2023-05-08T18:28:33.597Z,33.19
2023-05-08T18:31:03.363Z,33.19
2023-05-08T18:33:32.470Z,33.39
2023-05-08T18:36:01.619Z,33.15
2023-05-08T18:38:30.887Z,33.42
2023-05-08T18:41:03.121Z,33.56
2023-05-08T18:43:32.442Z,33.52
2023-05-08T18:46:01.303Z,33.79
2023-05-08T18:48:30.542Z,33.80
2023-05-08T18:50:59.600Z,33.88
2023-05-08T18:53:28.480Z,33.96
2023-05-08T18:55:57.744Z,33.85
2023-05-08T18:58:27.023Z,33.98
2023-05-08T19:00:57.922Z,34.30
2023-05-08T19:03:27.383Z,34.41
2023-05-08T19:05:56.802Z,34.31
2023-05-08T19:08:25.791Z,34.29
2023-05-08T19:10:56.322Z,34.77
2023-05-08T19:13:25.204Z,34.59
2023-05-08T19:15:54.829Z,34.70
2023-05-08T19:18:24.928Z,34.60
2023-05-08T19:20:53.870Z,35.00
2023-05-08T19:23:22.904Z,34.98
2023-05-08T19:25:51.727Z,35.30
2023-05-08T19:28:20.845Z,35.03
2023-05-08T19:30:49.806Z,35.16
2023-05-08T19:33:21.197Z,35.22
2023-05-08T19:35:50.121Z,35.29
2023-05-08T19:38:20.659Z,35.17
2023-05-08T19:40:57.160Z,35.17
2023-05-08T19:43:28.219Z,35.18
2023-05-08T19:45:57.244Z,35.12
2023-05-08T19:48:26.202Z,35.23
2023-05-08T19:50:55.272Z,35.42
2023-05-08T19:53:24.606Z,35.17
2023-05-08T19:55:53.499Z,35.22
2023-05-08T19:58:22.485Z,35.53
2023-05-08T20:00:52.724Z,35.62
2023-05-08T20:03:21.892Z,35.48
2023-05-08T20:05:53.012Z,35.44
2023-05-08T20:08:21.920Z,35.61
2023-05-08T20:10:50.756Z,35.54
2023-05-08T20:13:19.835Z,35.75
2023-05-08T20:15:49.098Z,35.63
2023-05-08T20:18:17.925Z,35.92
2023-05-08T20:20:47.899Z,35.83
2023-05-08T20:23:16.914Z,35.77
2023-05-08T20:25:48.189Z,35.87
2023-05-08T20:28:22.719Z,35.80
2023-05-08T20:30:52.447Z,35.51
2023-05-08T20:33:21.545Z,35.70
2023-05-08T20:35:50.417Z,35.57
2023-05-08T20:38:20.125Z,35.70
2023-05-08T20:40:49.066Z,36.29
2023-05-08T20:43:18.228Z,36.26
2023-05-08T20:45:47.237Z,36.17
2023-05-08T20:48:16.045Z,36.47
2023-05-08T20:50:45.054Z,36.08
2023-05-08T20:53:14.049Z,36.13
2023-05-08T20:55:43.064Z,36.31
2023-05-08T20:58:13.264Z,35.93
2023-05-08T21:00:42.641Z,36.22
2023-05-08T21:03:11.902Z,36.32
2023-05-08T21:05:41.241Z,36.27
2023-05-08T21:08:10.506Z,36.35
2023-05-08T21:10:40.150Z,36.07
2023-05-08T21:13:09.932Z,36.09
2023-05-08T21:15:39.130Z,36.32
2023-05-08T21:18:08.320Z,35.90
2023-05-08T21:20:38.138Z,36.15
2023-05-08T21:23:09.211Z,35.92
2023-05-08T21:25:38.443Z,35.85
2023-05-08T21:28:07.574Z,36.21
2023-05-08T21:30:37.291Z,36.34
2023-05-08T21:33:06.897Z,35.96
2023-05-08T21:35:35.775Z,36.33
2023-05-08T21:38:06.237Z,35.94
2023-05-08T21:40:35.893Z,36.02
2023-05-08T21:43:05.110Z,36.15
2023-05-08T21:45:34.442Z,35.89
2023-05-08T21:48:03.824Z,35.82
2023-05-08T21:50:32.762Z,36.12
2023-05-08T21:53:02.046Z,35.94
2023-05-08T21:55:32.385Z,36.07
2023-05-08T21:58:02.053Z,35.68
2023-05-08T22:00:31.343Z,35.99
2023-05-08T22:03:00.595Z,35.72
2023-05-08T22:05:29.619Z,35.61
2023-05-08T22:07:58.429Z,35.63
2023-05-08T22:10:27.458Z,35.46
2023-05-08T22:12:56.550Z,35.62
2023-05-08T22:15:30.323Z,35.27
2023-05-08T22:18:00.862Z,35.58
2023-05-08T22:20:29.867Z,35.43
2023-05-08T22:22:59.523Z,35.34
2023-05-08T22:25:28.505Z,35.43
2023-05-08T22:27:57.795Z,35.53
2023-05-08T22:30:26.658Z,35.28
2023-05-08T22:32:58.056Z,35.46
2023-05-08T22:35:28.424Z,35.42
2023-05-08T22:37:58.742Z,35.36
2023-05-08T22:40:29.661Z,35.32
2023-05-08T22:42:59.668Z,35.22
2023-05-08T22:45:28.869Z,35.11
2023-05-08T22:47:57.904Z,35.21
2023-05-08T22:50:28.354Z,35.11
2023-05-08T22:52:57.234Z,34.97
2023-05-08T22:55:26.070Z,35.01
2023-05-08T22:57:54.974Z,34.77
2023-05-08T23:00:25.015Z,34.90
2023-05-08T23:02:54.421Z,34.70
2023-05-08T23:05:24.755Z,34.63
2023-05-08T23:07:53.836Z,34.88
2023-05-08T23:10:23.350Z,34.73
2023-05-08T23:12:52.161Z,34.68
2023-05-08T23:15:21.764Z,34.60
2023-05-08T23:17:51.951Z,34.41
2023-05-08T23:20:20.923Z,34.52
2023-05-08T23:22:49.822Z,34.43
2023-05-08T23:25:18.700Z,34.31
2023-05-08T23:27:47.452Z,34.53
2023-05-08T23:30:17.510Z,34.37
2023-05-08T23:32:47.256Z,34.30
2023-05-08T23:35:17.199Z,34.17
2023-05-08T23:37:46.185Z,34.37
2023-05-08T23:40:15.001Z,34.47
2023-05-08T23:42:44.949Z,34.29
2023-05-08T23:45:14.173Z,34.40
2023-05-08T23:47:43.196Z,34.23
2023-05-08T23:50:12.629Z,34.32
2023-05-08T23:52:42.501Z,34.16
2023-05-08T23:55:11.764Z,33.91
2023-05-08T23:57:41.142Z,33.89
